sensor_id;sensor_type;location;lat;lon;timestamp;temperature;humidity
71396;DHT22;59888;55.814;37.132;2023-03-18T00:02:12;-0.34;37.86
71396;DHT22;59888;55.814;37.132;2023-03-18T00:04:38;-0.29;37.85
71396;DHT22;59888;55.814;37.132;2023-03-18T00:07:05;-0.31;37.82
71396;DHT22;59888;55.814;37.132;2023-03-18T00:09:30;-0.31;37.80
71396;DHT22;59888;55.814;37.132;2023-03-18T00:11:56;-0.29;37.91
71396;DHT22;59888;55.814;37.132;2023-03-18T00:14:22;-0.34;38.00
71396;DHT22;59888;55.814;37.132;2023-03-18T00:16:48;-0.32;38.08
71396;DHT22;59888;55.814;37.132;2023-03-18T00:19:15;-0.34;38.06
71396;DHT22;59888;55.814;37.132;2023-03-18T00:21:42;-0.36;38.11
71396;DHT22;59888;55.814;37.132;2023-03-18T00:24:07;-0.40;38.18
71396;DHT22;59888;55.814;37.132;2023-03-18T00:26:34;-0.44;38.34
71396;DHT22;59888;55.814;37.132;2023-03-18T00:29:00;-0.46;38.19
71396;DHT22;59888;55.814;37.132;2023-03-18T00:31:26;-0.46;38.19
71396;DHT22;59888;55.814;37.132;2023-03-18T00:33:53;-0.46;38.29
71396;DHT22;59888;55.814;37.132;2023-03-18T00:36:19;-0.50;38.24
71396;DHT22;59888;55.814;37.132;2023-03-18T00:38:50;-0.51;38.37
71396;DHT22;59888;55.814;37.132;2023-03-18T00:41:17;-0.51;38.40
71396;DHT22;59888;55.814;37.132;2023-03-18T00:43:44;-0.54;38.44
71396;DHT22;59888;55.814;37.132;2023-03-18T00:46:27;-0.57;38.63
71396;DHT22;59888;55.814;37.132;2023-03-18T00:48:53;-0.61;38.75
71396;DHT22;59888;55.814;37.132;2023-03-18T00:51:20;-0.61;38.62
71396;DHT22;59888;55.814;37.132;2023-03-18T00:53:48;-0.62;38.67
71396;DHT22;59888;55.814;37.132;2023-03-18T00:56:15;-0.62;38.64
71396;DHT22;59888;55.814;37.132;2023-03-18T00:58:42;-0.65;38.57
71396;DHT22;59888;55.814;37.132;2023-03-18T01:01:08;-0.65;38.65
71396;DHT22;59888;55.814;37.132;2023-03-18T01:03:34;-0.62;38.75
71396;DHT22;59888;55.814;37.132;2023-03-18T01:06:00;-0.65;38.77
71396;DHT22;59888;55.814;37.132;2023-03-18T01:08:27;-0.65;38.70
71396;DHT22;59888;55.814;37.132;2023-03-18T01:10:54;-0.66;38.79
71396;DHT22;59888;55.814;37.132;2023-03-18T01:13:20;-0.68;38.89
71396;DHT22;59888;55.814;37.132;2023-03-18T01:15:47;-0.66;38.77
71396;DHT22;59888;55.814;37.132;2023-03-18T01:18:13;-0.64;38.95
71396;DHT22;59888;55.814;37.132;2023-03-18T01:20:38;-0.68;38.79
71396;DHT22;59888;55.814;37.132;2023-03-18T01:23:05;-0.67;38.80
71396;DHT22;59888;55.814;37.132;2023-03-18T01:25:33;-0.68;38.80
71396;DHT22;59888;55.814;37.132;2023-03-18T01:27:58;-0.65;38.61
71396;DHT22;59888;55.814;37.132;2023-03-18T01:30:24;-0.62;38.71
71396;DHT22;59888;55.814;37.132;2023-03-18T01:32:52;-0.61;38.69
71396;DHT22;59888;55.814;37.132;2023-03-18T01:35:19;-0.60;38.60
71396;DHT22;59888;55.814;37.132;2023-03-18T01:37:47;-0.60;38.68
71396;DHT22;59888;55.814;37.132;2023-03-18T01:40:13;-0.64;38.75
71396;DHT22;59888;55.814;37.132;2023-03-18T01:42:40;-0.64;38.86
71396;DHT22;59888;55.814;37.132;2023-03-18T01:45:17;-0.67;39.04
71396;DHT22;59888;55.814;37.132;2023-03-18T01:47:46;-0.69;38.91
71396;DHT22;59888;55.814;37.132;2023-03-18T01:50:16;-0.71;39.10
71396;DHT22;59888;55.814;37.132;2023-03-18T01:52:43;-0.70;38.99
71396;DHT22;59888;55.814;37.132;2023-03-18T01:55:11;-0.70;39.01
71396;DHT22;59888;55.814;37.132;2023-03-18T01:57:38;-0.69;39.01
71396;DHT22;59888;55.814;37.132;2023-03-18T02:00:07;-0.70;39.04
71396;DHT22;59888;55.814;37.132;2023-03-18T02:02:43;-0.71;39.29
71396;DHT22;59888;55.814;37.132;2023-03-18T02:05:11;-0.73;39.18
71396;DHT22;59888;55.814;37.132;2023-03-18T02:07:40;-0.76;39.21
71396;DHT22;59888;55.814;37.132;2023-03-18T02:10:20;-0.75;39.28
71396;DHT22;59888;55.814;37.132;2023-03-18T02:12:48;-0.76;39.26
71396;DHT22;59888;55.814;37.132;2023-03-18T02:15:23;-0.74;39.17
71396;DHT22;59888;55.814;37.132;2023-03-18T02:17:54;-0.77;39.28
71396;DHT22;59888;55.814;37.132;2023-03-18T02:21:12;-0.76;39.19
71396;DHT22;59888;55.814;37.132;2023-03-18T02:28:13;-0.83;39.34
71396;DHT22;59888;55.814;37.132;2023-03-18T02:30:42;-0.91;39.41
71396;DHT22;59888;55.814;37.132;2023-03-18T02:33:10;-0.98;39.59
71396;DHT22;59888;55.814;37.132;2023-03-18T02:35:38;-1.02;39.68
71396;DHT22;59888;55.814;37.132;2023-03-18T02:38:04;-1.06;39.89
71396;DHT22;59888;55.814;37.132;2023-03-18T02:40:35;-1.10;39.87
71396;DHT22;59888;55.814;37.132;2023-03-18T02:45:53;-1.09;39.88
71396;DHT22;59888;55.814;37.132;2023-03-18T02:48:22;-1.08;39.98
71396;DHT22;59888;55.814;37.132;2023-03-18T02:50:49;-1.11;39.91
71396;DHT22;59888;55.814;37.132;2023-03-18T02:53:15;-1.13;40.13
71396;DHT22;59888;55.814;37.132;2023-03-18T02:55:42;-1.15;40.25
71396;DHT22;59888;55.814;37.132;2023-03-18T02:58:08;-1.16;40.21
71396;DHT22;59888;55.814;37.132;2023-03-18T03:00:35;-1.16;40.20
71396;DHT22;59888;55.814;37.132;2023-03-18T03:03:01;-1.17;40.28
71396;DHT22;59888;55.814;37.132;2023-03-18T03:05:28;-1.17;40.45
71396;DHT22;59888;55.814;37.132;2023-03-18T03:07:55;-1.17;40.32
71396;DHT22;59888;55.814;37.132;2023-03-18T03:10:21;-1.21;40.47
71396;DHT22;59888;55.814;37.132;2023-03-18T03:12:47;-1.20;40.35
71396;DHT22;59888;55.814;37.132;2023-03-18T03:15:15;-1.21;40.39
71396;DHT22;59888;55.814;37.132;2023-03-18T03:17:45;-1.24;40.42
71396;DHT22;59888;55.814;37.132;2023-03-18T03:20:16;-1.21;40.32
71396;DHT22;59888;55.814;37.132;2023-03-18T03:22:42;-1.20;40.29
71396;DHT22;59888;55.814;37.132;2023-03-18T03:25:09;-1.19;40.40
71396;DHT22;59888;55.814;37.132;2023-03-18T03:27:35;-1.25;40.35
71396;DHT22;59888;55.814;37.132;2023-03-18T03:30:05;-1.24;40.36
71396;DHT22;59888;55.814;37.132;2023-03-18T03:32:32;-1.24;40.47
71396;DHT22;59888;55.814;37.132;2023-03-18T03:34:57;-1.25;40.42
71396;DHT22;59888;55.814;37.132;2023-03-18T03:37:23;-1.23;40.42
71396;DHT22;59888;55.814;37.132;2023-03-18T03:39:49;-1.27;40.49
71396;DHT22;59888;55.814;37.132;2023-03-18T03:42:14;-1.27;40.63
71396;DHT22;59888;55.814;37.132;2023-03-18T03:44:41;-1.26;40.54
71396;DHT22;59888;55.814;37.132;2023-03-18T03:47:08;-1.25;40.51
71396;DHT22;59888;55.814;37.132;2023-03-18T03:49:33;-1.23;40.55
71396;DHT22;59888;55.814;37.132;2023-03-18T03:51:59;-1.24;40.58
71396;DHT22;59888;55.814;37.132;2023-03-18T03:54:26;-1.23;40.59
71396;DHT22;59888;55.814;37.132;2023-03-18T03:56:52;-1.21;40.58
71396;DHT22;59888;55.814;37.132;2023-03-18T03:59:18;-1.17;40.57
71396;DHT22;59888;55.814;37.132;2023-03-18T04:02:02;-1.16;40.67
71396;DHT22;59888;55.814;37.132;2023-03-18T04:04:28;-1.15;40.52
71396;DHT22;59888;55.814;37.132;2023-03-18T04:06:54;-1.12;40.65
71396;DHT22;59888;55.814;37.132;2023-03-18T04:09:20;-1.06;40.50
71396;DHT22;59888;55.814;37.132;2023-03-18T04:11:46;-1.02;40.52
71396;DHT22;59888;55.814;37.132;2023-03-18T04:14:12;-0.96;40.39
71396;DHT22;59888;55.814;37.132;2023-03-18T04:16:38;-0.93;40.33
71396;DHT22;59888;55.814;37.132;2023-03-18T04:19:06;-0.89;40.38
71396;DHT22;59888;55.814;37.132;2023-03-18T04:21:33;-0.83;40.30
71396;DHT22;59888;55.814;37.132;2023-03-18T04:23:59;-0.76;40.30
71396;DHT22;59888;55.814;37.132;2023-03-18T04:26:29;-0.71;40.27
71396;DHT22;59888;55.814;37.132;2023-03-18T04:28:59;-0.68;40.26
71396;DHT22;59888;55.814;37.132;2023-03-18T04:31:25;-0.56;40.24
71396;DHT22;59888;55.814;37.132;2023-03-18T04:33:52;-0.49;40.09
71396;DHT22;59888;55.814;37.132;2023-03-18T04:36:18;-0.40;40.09
71396;DHT22;59888;55.814;37.132;2023-03-18T04:38:44;-0.28;40.05
71396;DHT22;59888;55.814;37.132;2023-03-18T04:41:09;-0.13;39.95
71396;DHT22;59888;55.814;37.132;2023-03-18T04:43:36;-0.02;39.84
71396;DHT22;59888;55.814;37.132;2023-03-18T04:46:03;0.06;39.77
71396;DHT22;59888;55.814;37.132;2023-03-18T04:48:29;0.17;39.66
71396;DHT22;59888;55.814;37.132;2023-03-18T04:50:57;0.27;39.56
71396;DHT22;59888;55.814;37.132;2023-03-18T04:53:27;0.34;39.46
71396;DHT22;59888;55.814;37.132;2023-03-18T04:55:53;0.40;39.58
71396;DHT22;59888;55.814;37.132;2023-03-18T04:58:25;0.43;39.72
71396;DHT22;59888;55.814;37.132;2023-03-18T05:01:02;0.50;39.64
71396;DHT22;59888;55.814;37.132;2023-03-18T05:03:34;0.61;39.53
71396;DHT22;59888;55.814;37.132;2023-03-18T05:06:00;0.75;39.42
71396;DHT22;59888;55.814;37.132;2023-03-18T05:08:36;0.86;39.27
71396;DHT22;59888;55.814;37.132;2023-03-18T05:11:02;1.03;39.11
71396;DHT22;59888;55.814;37.132;2023-03-18T05:13:30;1.20;38.83
71396;DHT22;59888;55.814;37.132;2023-03-18T05:15:56;1.33;38.60
71396;DHT22;59888;55.814;37.132;2023-03-18T05:18:27;1.45;38.55
71396;DHT22;59888;55.814;37.132;2023-03-18T05:20:55;1.60;38.42
71396;DHT22;59888;55.814;37.132;2023-03-18T05:23:22;1.71;38.22
71396;DHT22;59888;55.814;37.132;2023-03-18T05:25:52;1.84;38.08
71396;DHT22;59888;55.814;37.132;2023-03-18T05:28:20;1.96;37.99
71396;DHT22;59888;55.814;37.132;2023-03-18T05:31:04;2.09;37.88
71396;DHT22;59888;55.814;37.132;2023-03-18T05:33:35;2.20;37.57
71396;DHT22;59888;55.814;37.132;2023-03-18T05:36:01;2.29;37.63
71396;DHT22;59888;55.814;37.132;2023-03-18T05:38:32;2.37;37.37
71396;DHT22;59888;55.814;37.132;2023-03-18T05:40:59;2.46;37.45
71396;DHT22;59888;55.814;37.132;2023-03-18T05:43:34;2.60;37.24
71396;DHT22;59888;55.814;37.132;2023-03-18T05:46:00;2.72;37.20
71396;DHT22;59888;55.814;37.132;2023-03-18T05:48:39;2.90;37.17
71396;DHT22;59888;55.814;37.132;2023-03-18T05:51:06;3.09;36.95
71396;DHT22;59888;55.814;37.132;2023-03-18T05:53:34;3.17;36.69
71396;DHT22;59888;55.814;37.132;2023-03-18T05:56:12;3.23;36.47
71396;DHT22;59888;55.814;37.132;2023-03-18T05:58:40;3.31;36.56
71396;DHT22;59888;55.814;37.132;2023-03-18T06:01:22;3.41;36.31
71396;DHT22;59888;55.814;37.132;2023-03-18T06:03:50;3.53;36.26
71396;DHT22;59888;55.814;37.132;2023-03-18T06:06:15;3.58;36.14
71396;DHT22;59888;55.814;37.132;2023-03-18T06:08:42;3.70;36.05
71396;DHT22;59888;55.814;37.132;2023-03-18T06:11:08;3.78;35.87
71396;DHT22;59888;55.814;37.132;2023-03-18T06:13:35;3.89;35.95
71396;DHT22;59888;55.814;37.132;2023-03-18T06:16:01;4.02;35.41
71396;DHT22;59888;55.814;37.132;2023-03-18T06:18:29;4.03;35.14
71396;DHT22;59888;55.814;37.132;2023-03-18T06:20:55;4.07;35.23
71396;DHT22;59888;55.814;37.132;2023-03-18T06:23:22;4.17;35.27
71396;DHT22;59888;55.814;37.132;2023-03-18T06:25:48;4.30;35.27
71396;DHT22;59888;55.814;37.132;2023-03-18T06:28:16;4.48;35.03
71396;DHT22;59888;55.814;37.132;2023-03-18T06:30:43;4.63;35.05
71396;DHT22;59888;55.814;37.132;2023-03-18T06:33:09;4.76;34.88
71396;DHT22;59888;55.814;37.132;2023-03-18T06:35:35;4.96;34.62
71396;DHT22;59888;55.814;37.132;2023-03-18T06:38:01;5.06;33.89
71396;DHT22;59888;55.814;37.132;2023-03-18T06:40:29;5.17;33.81
71396;DHT22;59888;55.814;37.132;2023-03-18T06:42:59;5.25;33.28
71396;DHT22;59888;55.814;37.132;2023-03-18T06:45:33;5.32;32.99
71396;DHT22;59888;55.814;37.132;2023-03-18T06:48:04;5.38;33.13
71396;DHT22;59888;55.814;37.132;2023-03-18T06:50:33;5.47;32.59
71396;DHT22;59888;55.814;37.132;2023-03-18T06:52:59;5.53;33.09
71396;DHT22;59888;55.814;37.132;2023-03-18T06:55:29;5.69;30.90
71396;DHT22;59888;55.814;37.132;2023-03-18T06:57:56;5.71;32.42
71396;DHT22;59888;55.814;37.132;2023-03-18T07:00:28;5.82;31.73
71396;DHT22;59888;55.814;37.132;2023-03-18T07:02:56;5.89;32.08
71396;DHT22;59888;55.814;37.132;2023-03-18T07:05:27;6.08;32.02
71396;DHT22;59888;55.814;37.132;2023-03-18T07:07:53;6.24;31.61
71396;DHT22;59888;55.814;37.132;2023-03-18T07:10:20;6.36;31.04
71396;DHT22;59888;55.814;37.132;2023-03-18T07:12:48;6.43;31.19
71396;DHT22;59888;55.814;37.132;2023-03-18T07:15:16;6.46;30.79
71396;DHT22;59888;55.814;37.132;2023-03-18T07:17:45;6.50;30.44
71396;DHT22;59888;55.814;37.132;2023-03-18T07:20:11;6.51;30.36
71396;DHT22;59888;55.814;37.132;2023-03-18T07:22:37;6.52;30.16
71396;DHT22;59888;55.814;37.132;2023-03-18T07:25:03;6.53;29.38
71396;DHT22;59888;55.814;37.132;2023-03-18T07:27:28;6.57;29.53
71396;DHT22;59888;55.814;37.132;2023-03-18T07:29:54;6.60;29.27
71396;DHT22;59888;55.814;37.132;2023-03-18T07:32:21;6.64;28.07
71396;DHT22;59888;55.814;37.132;2023-03-18T07:34:48;6.67;28.90
71396;DHT22;59888;55.814;37.132;2023-03-18T07:37:14;6.73;29.26
71396;DHT22;59888;55.814;37.132;2023-03-18T07:39:40;6.78;27.26
71396;DHT22;59888;55.814;37.132;2023-03-18T07:42:08;6.78;27.81
71396;DHT22;59888;55.814;37.132;2023-03-18T07:44:34;6.84;29.15
71396;DHT22;59888;55.814;37.132;2023-03-18T07:47:01;6.97;28.90
71396;DHT22;59888;55.814;37.132;2023-03-18T07:49:26;7.05;28.50
71396;DHT22;59888;55.814;37.132;2023-03-18T07:51:52;7.16;29.19
71396;DHT22;59888;55.814;37.132;2023-03-18T07:54:18;7.20;28.66
71396;DHT22;59888;55.814;37.132;2023-03-18T07:56:44;7.26;27.82
71396;DHT22;59888;55.814;37.132;2023-03-18T07:59:10;7.29;27.92
71396;DHT22;59888;55.814;37.132;2023-03-18T08:01:36;7.37;27.02
71396;DHT22;59888;55.814;37.132;2023-03-18T08:04:04;7.41;26.34
71396;DHT22;59888;55.814;37.132;2023-03-18T08:06:30;7.42;25.93
71396;DHT22;59888;55.814;37.132;2023-03-18T08:08:57;7.42;26.11
71396;DHT22;59888;55.814;37.132;2023-03-18T08:11:23;7.47;26.84
71396;DHT22;59888;55.814;37.132;2023-03-18T08:13:48;7.55;27.97
71396;DHT22;59888;55.814;37.132;2023-03-18T08:16:14;7.63;26.84
71396;DHT22;59888;55.814;37.132;2023-03-18T08:18:40;7.73;26.46
71396;DHT22;59888;55.814;37.132;2023-03-18T08:21:06;7.79;26.75
71396;DHT22;59888;55.814;37.132;2023-03-18T08:23:33;7.87;26.65
71396;DHT22;59888;55.814;37.132;2023-03-18T08:26:00;7.84;25.35
71396;DHT22;59888;55.814;37.132;2023-03-18T08:28:26;7.88;26.16
71396;DHT22;59888;55.814;37.132;2023-03-18T08:30:55;7.93;26.33
71396;DHT22;59888;55.814;37.132;2023-03-18T08:33:21;7.91;26.10
71396;DHT22;59888;55.814;37.132;2023-03-18T08:35:47;7.91;24.79
71396;DHT22;59888;55.814;37.132;2023-03-18T08:38:13;7.91;24.53
71396;DHT22;59888;55.814;37.132;2023-03-18T08:40:40;7.97;25.72
71396;DHT22;59888;55.814;37.132;2023-03-18T08:43:07;7.97;25.27
71396;DHT22;59888;55.814;37.132;2023-03-18T08:45:34;7.90;23.39
71396;DHT22;59888;55.814;37.132;2023-03-18T08:48:00;7.91;25.52
71396;DHT22;59888;55.814;37.132;2023-03-18T08:50:26;7.99;25.87
71396;DHT22;59888;55.814;37.132;2023-03-18T08:52:54;8.02;26.47
71396;DHT22;59888;55.814;37.132;2023-03-18T08:55:31;8.08;24.83
71396;DHT22;59888;55.814;37.132;2023-03-18T08:57:58;8.17;24.97
71396;DHT22;59888;55.814;37.132;2023-03-18T09:00:24;8.19;23.42
71396;DHT22;59888;55.814;37.132;2023-03-18T09:02:51;8.21;25.36
71396;DHT22;59888;55.814;37.132;2023-03-18T09:05:17;8.21;24.45
71396;DHT22;59888;55.814;37.132;2023-03-18T09:07:43;8.26;25.22
71396;DHT22;59888;55.814;37.132;2023-03-18T09:10:10;8.32;24.88
71396;DHT22;59888;55.814;37.132;2023-03-18T09:12:38;8.39;24.69
71396;DHT22;59888;55.814;37.132;2023-03-18T09:15:04;8.41;24.69
71396;DHT22;59888;55.814;37.132;2023-03-18T09:17:30;8.39;24.20
71396;DHT22;59888;55.814;37.132;2023-03-18T09:19:56;8.45;24.70
71396;DHT22;59888;55.814;37.132;2023-03-18T09:22:22;8.56;24.77
71396;DHT22;59888;55.814;37.132;2023-03-18T09:24:48;8.56;24.36
71396;DHT22;59888;55.814;37.132;2023-03-18T09:27:13;8.55;24.50
71396;DHT22;59888;55.814;37.132;2023-03-18T09:29:39;8.61;24.85
71396;DHT22;59888;55.814;37.132;2023-03-18T09:32:06;8.70;24.42
71396;DHT22;59888;55.814;37.132;2023-03-18T09:34:32;8.74;22.42
71396;DHT22;59888;55.814;37.132;2023-03-18T09:36:58;8.71;23.38
71396;DHT22;59888;55.814;37.132;2023-03-18T09:39:24;8.76;23.39
71396;DHT22;59888;55.814;37.132;2023-03-18T09:44:23;8.82;24.21
71396;DHT22;59888;55.814;37.132;2023-03-18T09:51:56;8.88;23.50
71396;DHT22;59888;55.814;37.132;2023-03-18T09:55:10;8.88;23.45
71396;DHT22;59888;55.814;37.132;2023-03-18T09:57:16;8.91;24.72
71396;DHT22;59888;55.814;37.132;2023-03-18T09:59:45;8.85;23.76
71396;DHT22;59888;55.814;37.132;2023-03-18T10:05:09;8.89;22.87
71396;DHT22;59888;55.814;37.132;2023-03-18T10:07:38;8.93;23.85
71396;DHT22;59888;55.814;37.132;2023-03-18T10:10:05;8.93;22.96
71396;DHT22;59888;55.814;37.132;2023-03-18T10:15:03;8.94;22.47
71396;DHT22;59888;55.814;37.132;2023-03-18T10:17:32;8.92;23.32
71396;DHT22;59888;55.814;37.132;2023-03-18T10:20:00;8.96;23.90
71396;DHT22;59888;55.814;37.132;2023-03-18T10:35:44;9.06;22.68
71396;DHT22;59888;55.814;37.132;2023-03-18T10:40:47;9.06;22.65
71396;DHT22;59888;55.814;37.132;2023-03-18T10:43:17;9.11;22.84
71396;DHT22;59888;55.814;37.132;2023-03-18T10:45:44;9.17;21.72
71396;DHT22;59888;55.814;37.132;2023-03-18T10:48:24;9.16;22.88
71396;DHT22;59888;55.814;37.132;2023-03-18T10:56:06;9.18;22.82
71396;DHT22;59888;55.814;37.132;2023-03-18T10:58:32;9.26;23.53
71396;DHT22;59888;55.814;37.132;2023-03-18T11:00:58;9.27;22.72
71396;DHT22;59888;55.814;37.132;2023-03-18T11:05:50;9.27;22.59
71396;DHT22;59888;55.814;37.132;2023-03-18T11:08:27;9.34;22.43
71396;DHT22;59888;55.814;37.132;2023-03-18T11:10:53;9.35;22.18
71396;DHT22;59888;55.814;37.132;2023-03-18T11:13:19;9.32;19.82
71396;DHT22;59888;55.814;37.132;2023-03-18T11:22:00;9.29;21.41
71396;DHT22;59888;55.814;37.132;2023-03-18T11:24:28;9.26;22.63
71396;DHT22;59888;55.814;37.132;2023-03-18T11:27:00;9.30;22.11
71396;DHT22;59888;55.814;37.132;2023-03-18T11:29:32;9.40;22.22
71396;DHT22;59888;55.814;37.132;2023-03-18T11:31:59;9.49;22.41
71396;DHT22;59888;55.814;37.132;2023-03-18T11:34:26;9.52;22.21
71396;DHT22;59888;55.814;37.132;2023-03-18T11:36:53;9.51;22.28
71396;DHT22;59888;55.814;37.132;2023-03-18T11:39:21;9.52;21.81
71396;DHT22;59888;55.814;37.132;2023-03-18T11:41:47;9.50;21.31
71396;DHT22;59888;55.814;37.132;2023-03-18T11:44:17;9.60;21.62
71396;DHT22;59888;55.814;37.132;2023-03-18T11:47:02;9.63;22.05
71396;DHT22;59888;55.814;37.132;2023-03-18T11:49:29;9.55;21.26
71396;DHT22;59888;55.814;37.132;2023-03-18T11:51:58;9.48;21.49
71396;DHT22;59888;55.814;37.132;2023-03-18T11:56:59;9.45;21.84
71396;DHT22;59888;55.814;37.132;2023-03-18T12:02:19;9.48;21.47
71396;DHT22;59888;55.814;37.132;2023-03-18T12:05:08;9.59;21.47
71396;DHT22;59888;55.814;37.132;2023-03-18T12:07:58;9.67;19.98
71396;DHT22;59888;55.814;37.132;2023-03-18T12:20:36;9.83;21.57
71396;DHT22;59888;55.814;37.132;2023-03-18T12:25:52;10.07;22.26
71396;DHT22;59888;55.814;37.132;2023-03-18T12:33:50;10.27;21.05
71396;DHT22;59888;55.814;37.132;2023-03-18T12:36:21;10.42;22.01
71396;DHT22;59888;55.814;37.132;2023-03-18T12:41:20;0.00;22.78
71396;DHT22;59888;55.814;37.132;2023-03-18T12:44:01;12.45;22.19
71396;DHT22;59888;55.814;37.132;2023-03-18T12:51:39;18.78;18.23
71396;DHT22;59888;55.814;37.132;2023-03-18T12:54:08;20.66;18.21
71396;DHT22;59888;55.814;37.132;2023-03-18T12:56:36;0.00;18.25
71396;DHT22;59888;55.814;37.132;2023-03-18T12:59:11;0.00;0.00
71396;DHT22;59888;55.814;37.132;2023-03-18T13:01:51;0.00;0.00
71396;DHT22;59888;55.814;37.132;2023-03-18T13:04:18;0.00;0.00
71396;DHT22;59888;55.814;37.132;2023-03-18T13:06:50;0.00;0.00
71396;DHT22;59888;55.814;37.132;2023-03-18T13:09:38;0.00;0.00
71396;DHT22;59888;55.814;37.132;2023-03-18T13:12:11;0.00;0.00
71396;DHT22;59888;55.814;37.132;2023-03-18T13:17:04;29.83;15.70
71396;DHT22;59888;55.814;37.132;2023-03-18T13:19:33;30.36;16.25
71396;DHT22;59888;55.814;37.132;2023-03-18T13:35:51;32.18;16.51
71396;DHT22;59888;55.814;37.132;2023-03-18T13:40:41;30.91;15.80
71396;DHT22;59888;55.814;37.132;2023-03-18T13:43:16;0.00;0.00
71396;DHT22;59888;55.814;37.132;2023-03-18T13:45:47;29.52;16.64
71396;DHT22;59888;55.814;37.132;2023-03-18T13:48:30;30.02;16.76
71396;DHT22;59888;55.814;37.132;2023-03-18T13:50:58;31.18;16.96
71396;DHT22;59888;55.814;37.132;2023-03-18T13:53:30;32.72;15.96
71396;DHT22;59888;55.814;37.132;2023-03-18T13:58:23;0.00;0.00
71396;DHT22;59888;55.814;37.132;2023-03-18T14:03:21;0.00;0.00
71396;DHT22;59888;55.814;37.132;2023-03-18T14:05:51;0.00;0.00
71396;DHT22;59888;55.814;37.132;2023-03-18T14:11:56;33.00;15.62
71396;DHT22;59888;55.814;37.132;2023-03-18T14:13:59;32.82;15.06
71396;DHT22;59888;55.814;37.132;2023-03-18T14:16:26;31.93;15.47
71396;DHT22;59888;55.814;37.132;2023-03-18T14:18:58;31.37;14.25
71396;DHT22;59888;55.814;37.132;2023-03-18T14:21:29;30.11;14.12
71396;DHT22;59888;55.814;37.132;2023-03-18T14:24:29;28.87;16.55
71396;DHT22;59888;55.814;37.132;2023-03-18T14:29:24;28.42;16.38
71396;DHT22;59888;55.814;37.132;2023-03-18T14:31:57;28.42;16.32
71396;DHT22;59888;55.814;37.132;2023-03-18T14:34:24;28.48;15.88
71396;DHT22;59888;55.814;37.132;2023-03-18T14:39:23;28.37;15.99
71396;DHT22;59888;55.814;37.132;2023-03-18T14:41:52;28.06;15.11
71396;DHT22;59888;55.814;37.132;2023-03-18T14:46:57;0.00;16.63
71396;DHT22;59888;55.814;37.132;2023-03-18T14:52:30;23.10;16.41
71396;DHT22;59888;55.814;37.132;2023-03-18T14:55:01;0.00;0.00
71396;DHT22;59888;55.814;37.132;2023-03-18T14:57:29;20.43;17.78
71396;DHT22;59888;55.814;37.132;2023-03-18T14:59:59;19.41;17.87
71396;DHT22;59888;55.814;37.132;2023-03-18T15:02:26;18.32;18.31
71396;DHT22;59888;55.814;37.132;2023-03-18T15:04:54;17.31;18.59
71396;DHT22;59888;55.814;37.132;2023-03-18T15:07:23;16.51;18.73
71396;DHT22;59888;55.814;37.132;2023-03-18T15:09:52;15.74;19.00
71396;DHT22;59888;55.814;37.132;2023-03-18T15:12:23;15.13;19.30
71396;DHT22;59888;55.814;37.132;2023-03-18T15:14:49;14.60;19.44
71396;DHT22;59888;55.814;37.132;2023-03-18T15:17:15;14.07;19.76
71396;DHT22;59888;55.814;37.132;2023-03-18T15:19:41;13.52;19.73
71396;DHT22;59888;55.814;37.132;2023-03-18T15:22:07;13.03;19.98
71396;DHT22;59888;55.814;37.132;2023-03-18T15:24:33;12.58;20.21
71396;DHT22;59888;55.814;37.132;2023-03-18T15:27:03;12.21;20.37
71396;DHT22;59888;55.814;37.132;2023-03-18T15:29:30;11.83;20.32
71396;DHT22;59888;55.814;37.132;2023-03-18T15:34:31;11.11;20.60
71396;DHT22;59888;55.814;37.132;2023-03-18T15:36:59;10.75;20.73
71396;DHT22;59888;55.814;37.132;2023-03-18T15:41:52;10.12;20.90
71396;DHT22;59888;55.814;37.132;2023-03-18T15:44:21;9.80;21.08
71396;DHT22;59888;55.814;37.132;2023-03-18T15:46:49;9.54;21.22
71396;DHT22;59888;55.814;37.132;2023-03-18T15:49:14;9.33;21.46
71396;DHT22;59888;55.814;37.132;2023-03-18T15:51:41;9.06;21.47
71396;DHT22;59888;55.814;37.132;2023-03-18T15:54:27;8.80;21.56
71396;DHT22;59888;55.814;37.132;2023-03-18T15:56:55;8.56;21.68
71396;DHT22;59888;55.814;37.132;2023-03-18T15:59:28;8.30;21.86
71396;DHT22;59888;55.814;37.132;2023-03-18T16:01:54;8.02;22.11
71396;DHT22;59888;55.814;37.132;2023-03-18T16:04:21;7.83;22.14
71396;DHT22;59888;55.814;37.132;2023-03-18T16:06:47;7.67;22.21
71396;DHT22;59888;55.814;37.132;2023-03-18T16:09:14;7.52;22.17
71396;DHT22;59888;55.814;37.132;2023-03-18T16:11:42;7.30;22.52
71396;DHT22;59888;55.814;37.132;2023-03-18T16:14:10;7.15;22.74
71396;DHT22;59888;55.814;37.132;2023-03-18T16:16:38;7.03;22.89
71396;DHT22;59888;55.814;37.132;2023-03-18T16:19:09;6.91;23.38
71396;DHT22;59888;55.814;37.132;2023-03-18T16:21:36;6.74;23.81
71396;DHT22;59888;55.814;37.132;2023-03-18T16:24:02;6.60;23.81
71396;DHT22;59888;55.814;37.132;2023-03-18T16:26:28;6.42;24.24
71396;DHT22;59888;55.814;37.132;2023-03-18T16:28:53;6.21;24.39
71396;DHT22;59888;55.814;37.132;2023-03-18T16:31:20;6.04;24.41
71396;DHT22;59888;55.814;37.132;2023-03-18T16:33:46;5.87;24.43
71396;DHT22;59888;55.814;37.132;2023-03-18T16:36:19;5.72;24.45
71396;DHT22;59888;55.814;37.132;2023-03-18T16:38:45;5.60;24.75
71396;DHT22;59888;55.814;37.132;2023-03-18T16:41:11;5.48;24.79
71396;DHT22;59888;55.814;37.132;2023-03-18T16:43:37;5.19;25.07
71396;DHT22;59888;55.814;37.132;2023-03-18T16:46:02;5.06;25.22
71396;DHT22;59888;55.814;37.132;2023-03-18T16:48:28;5.00;25.32
71396;DHT22;59888;55.814;37.132;2023-03-18T16:50:54;4.78;25.45
71396;DHT22;59888;55.814;37.132;2023-03-18T16:55:49;4.65;25.82
71396;DHT22;59888;55.814;37.132;2023-03-18T16:58:17;4.56;25.87
71396;DHT22;59888;55.814;37.132;2023-03-18T17:00:44;4.47;25.99
71396;DHT22;59888;55.814;37.132;2023-03-18T17:03:12;4.38;26.04
71396;DHT22;59888;55.814;37.132;2023-03-18T17:05:38;4.21;26.14
71396;DHT22;59888;55.814;37.132;2023-03-18T17:08:04;4.13;26.11
71396;DHT22;59888;55.814;37.132;2023-03-18T17:10:29;4.07;26.23
71396;DHT22;59888;55.814;37.132;2023-03-18T17:12:56;4.02;26.28
71396;DHT22;59888;55.814;37.132;2023-03-18T17:15:30;3.92;26.56
71396;DHT22;59888;55.814;37.132;2023-03-18T17:17:59;3.91;26.53
71396;DHT22;59888;55.814;37.132;2023-03-18T17:20:25;3.85;26.86
71396;DHT22;59888;55.814;37.132;2023-03-18T17:22:51;3.77;26.94
71396;DHT22;59888;55.814;37.132;2023-03-18T17:25:20;3.72;26.97
71396;DHT22;59888;55.814;37.132;2023-03-18T17:27:50;3.67;27.35
71396;DHT22;59888;55.814;37.132;2023-03-18T17:30:20;3.62;27.50
71396;DHT22;59888;55.814;37.132;2023-03-18T17:32:47;3.54;27.81
71396;DHT22;59888;55.814;37.132;2023-03-18T17:35:14;3.47;28.00
71396;DHT22;59888;55.814;37.132;2023-03-18T17:37:43;3.42;28.04
71396;DHT22;59888;55.814;37.132;2023-03-18T17:40:09;3.27;28.33